Time;durP1;ratioP1;P1;durP2;ratioP2;P2;SDS_P1;SDS_P2;PMS_P1;PMS_P2;Temp;Humidity;BMP_temperature;BMP_pressure;BME280_temperature;BME280_humidity;BME280_pressure;Samples;Min_cycle;Max_cycle;Signal;HPM_P1;HPM_P2
2022/06/14 00:03:05;;;;;;;4.07;1.42;;;20.40;49.30;;;;;;5052291;28;20256;-72
2022/06/14 00:05:31;;;;;;;2.75;1.70;;;20.40;49.10;;;;;;5051338;28;20258;-73
2022/06/14 00:07:56;;;;;;;3.38;1.85;;;20.40;49.10;;;;;;5051481;28;20578;-73
2022/06/14 00:10:22;;;;;;;2.88;1.20;;;20.40;49.10;;;;;;5052343;28;20625;-73
2022/06/14 00:12:47;;;;;;;1.55;1.15;;;20.30;49.00;;;;;;5051387;28;20193;-73
2022/06/14 00:15:13;;;;;;;3.05;1.30;;;20.30;49.00;;;;;;5055681;28;20265;-73
2022/06/14 00:17:38;;;;;;;2.58;1.30;;;20.30;49.00;;;;;;5056122;28;20305;-74
2022/06/14 00:20:05;;;;;;;4.75;1.50;;;20.30;48.90;;;;;;5055511;28;20198;-74
2022/06/14 00:22:33;;;;;;;3.85;1.52;;;20.30;48.80;;;;;;5056150;28;20186;-73
2022/06/14 00:24:58;;;;;;;3.38;1.45;;;20.30;48.80;;;;;;5055805;28;20641;-73
2022/06/14 00:27:24;;;;;;;2.55;1.27;;;20.30;48.90;;;;;;5055461;28;20171;-73
2022/06/14 00:29:49;;;;;;;5.10;1.40;;;20.30;48.80;;;;;;5055993;28;20186;-74
2022/06/14 00:32:15;;;;;;;3.05;1.42;;;20.30;48.80;;;;;;5056324;28;20225;-73
2022/06/14 00:34:40;;;;;;;1.08;0.90;;;20.30;48.80;;;;;;5055146;28;20221;-73
2022/06/14 00:37:11;;;;;;;4.50;1.25;;;20.20;48.80;;;;;;5055901;28;20236;-73
2022/06/14 00:39:36;;;;;;;3.92;1.30;;;20.20;48.80;;;;;;5054671;28;20218;-73
2022/06/14 00:42:02;;;;;;;3.97;1.70;;;20.20;48.80;;;;;;5055086;28;20691;-73
2022/06/14 00:44:28;;;;;;;1.67;1.45;;;20.20;48.80;;;;;;5056053;28;20237;-73
2022/06/14 00:47:01;;;;;;;2.55;1.30;;;20.20;48.80;;;;;;5055534;28;20364;-74
2022/06/14 00:49:35;;;;;;;2.65;1.25;;;20.20;48.80;;;;;;5055069;28;20180;-74
2022/06/14 00:52:04;;;;;;;3.22;1.52;;;20.20;48.70;;;;;;5054778;28;20262;-73
2022/06/14 00:54:33;;;;;;;5.10;1.52;;;20.20;48.80;;;;;;5054473;28;20254;-74
2022/06/14 00:57:08;;;;;;;6.25;1.75;;;20.10;48.80;;;;;;5053676;28;20171;-73
2022/06/14 00:59:46;;;;;;;2.95;1.65;;;20.10;49.40;;;;;;5054638;28;20223;-73
2022/06/14 01:02:13;;;;;;;3.08;1.70;;;20.10;48.80;;;;;;5053923;28;20282;-72
2022/06/14 01:04:39;;;;;;;2.38;1.33;;;20.10;48.90;;;;;;5055496;28;20203;-73
2022/06/14 01:07:15;;;;;;;3.35;2.10;;;20.10;48.90;;;;;;5054453;28;20185;-73
2022/06/14 01:09:49;;;;;;;2.60;1.33;;;20.10;48.80;;;;;;5054278;28;20266;-74
2022/06/14 01:12:19;;;;;;;4.25;1.70;;;20.10;48.90;;;;;;5054178;28;20187;-74
2022/06/14 01:14:52;;;;;;;4.82;1.67;;;20.10;48.80;;;;;;5054025;28;20180;-74
2022/06/14 01:17:18;;;;;;;2.97;1.75;;;20.10;48.90;;;;;;5053594;28;20578;-73
2022/06/14 01:19:43;;;;;;;2.38;1.60;;;20.00;48.80;;;;;;5054946;28;20669;-74
2022/06/14 01:22:09;;;;;;;3.75;2.08;;;20.00;48.80;;;;;;5055217;28;20206;-74
2022/06/14 01:24:34;;;;;;;2.38;1.40;;;20.00;48.80;;;;;;5054191;28;20646;-74
2022/06/14 01:27:00;;;;;;;5.38;1.65;;;20.00;48.80;;;;;;5055123;28;20198;-73
2022/06/14 01:29:26;;;;;;;4.28;1.90;;;20.00;48.70;;;;;;5054110;28;20190;-73
2022/06/14 01:31:52;;;;;;;5.60;1.98;;;20.00;48.70;;;;;;5052768;28;20175;-73
2022/06/14 01:34:17;;;;;;;2.42;1.55;;;20.00;48.80;;;;;;5053921;28;20186;-73
2022/06/14 01:36:43;;;;;;;2.42;1.98;;;20.00;48.90;;;;;;5053547;28;20544;-73
2022/06/14 01:39:10;;;;;;;3.17;1.75;;;20.00;48.90;;;;;;5052908;28;20657;-73
2022/06/14 01:42:03;;;;;;;3.55;1.83;;;20.00;48.90;;;;;;5054508;28;20186;-73
2022/06/14 01:45:10;;;;;;;5.68;2.33;;;20.00;48.90;;;;;;5054039;28;20650;-73
2022/06/14 01:48:03;;;;;;;3.70;2.00;;;19.90;48.80;;;;;;5054008;28;20662;-74
2022/06/14 01:53:27;;;;;;;3.13;1.90;;;19.90;48.90;;;;;;5054047;28;20210;-73
2022/06/14 01:56:09;;;;;;;4.78;2.15;;;19.90;49.10;;;;;;5054230;28;20237;-74
2022/06/14 01:58:37;;;;;;;3.67;2.10;;;19.90;49.20;;;;;;5052658;28;20171;-72
2022/06/14 02:01:22;;;;;;;3.75;1.90;;;19.90;49.40;;;;;;5054232;28;20203;-72
2022/06/14 02:06:43;;;;;;;3.65;1.60;;;19.90;49.40;;;;;;5053568;28;20190;-73
2022/06/14 02:09:11;;;;;;;4.07;1.95;;;19.90;49.30;;;;;;5054501;28;20269;-73
2022/06/14 02:11:37;;;;;;;3.17;1.80;;;19.90;49.30;;;;;;5053081;28;20171;-74
2022/06/14 02:14:28;;;;;;;3.25;1.88;;;19.90;49.40;;;;;;5053629;28;20179;-74
2022/06/14 02:16:59;;;;;;;3.78;1.95;;;19.80;49.40;;;;;;5052737;28;20258;-74
2022/06/14 02:19:35;;;;;;;3.03;1.63;;;19.80;49.30;;;;;;5052351;28;20237;-74
2022/06/14 02:22:14;;;;;;;3.60;2.42;;;19.80;49.40;;;;;;5052990;28;20178;-73
2022/06/14 02:24:42;;;;;;;2.83;1.63;;;19.80;49.40;;;;;;5052691;28;20181;-74
2022/06/14 02:27:14;;;;;;;2.88;1.90;;;19.80;49.40;;;;;;5052028;28;20178;-73
2022/06/14 02:29:54;;;;;;;4.88;2.20;;;19.80;49.20;;;;;;5053653;28;20182;-73
2022/06/14 02:32:26;;;;;;;3.95;2.25;;;19.80;49.30;;;;;;5052821;28;20174;-73
2022/06/14 02:35:17;;;;;;;3.42;2.20;;;19.80;49.30;;;;;;5051745;28;20208;-73
2022/06/14 02:37:52;;;;;;;4.60;2.22;;;19.70;49.30;;;;;;5049569;28;20199;-72
2022/06/14 02:40:21;;;;;;;4.47;2.17;;;19.70;49.20;;;;;;5052278;28;20225;-73
2022/06/14 02:43:04;;;;;;;3.83;2.08;;;19.80;49.30;;;;;;5052257;28;20297;-74
2022/06/14 02:45:42;;;;;;;5.05;1.70;;;19.70;49.10;;;;;;5053763;28;20175;-73
2022/06/14 02:48:26;;;;;;;3.53;1.50;;;19.70;49.10;;;;;;5051661;28;20182;-73
2022/06/14 02:50:56;;;;;;;5.55;2.20;;;19.70;49.10;;;;;;5052364;28;20206;-74
2022/06/14 02:53:28;;;;;;;2.92;1.55;;;19.70;49.10;;;;;;5052427;28;20553;-74
2022/06/14 02:56:03;;;;;;;5.53;2.40;;;19.70;49.20;;;;;;5051267;28;20597;-73
2022/06/14 02:58:49;;;;;;;4.25;1.65;;;19.70;49.10;;;;;;5052270;28;20178;-73
2022/06/14 03:01:30;;;;;;;4.65;2.08;;;19.70;49.10;;;;;;5052516;28;20183;-72
2022/06/14 03:04:20;;;;;;;4.13;2.03;;;19.60;49.10;;;;;;5051220;28;20244;-72
2022/06/14 03:06:58;;;;;;;3.88;2.53;;;19.60;49.00;;;;;;5050828;28;20270;-72
2022/06/14 03:09:26;;;;;;;3.55;2.05;;;19.70;49.00;;;;;;5050702;28;20175;-73
2022/06/14 03:12:04;;;;;;;4.25;1.85;;;19.70;49.00;;;;;;5051123;28;20232;-73
2022/06/14 03:14:50;;;;;;;3.63;1.55;;;19.60;48.90;;;;;;5052464;28;20186;-74
2022/06/14 03:17:37;;;;;;;3.63;2.03;;;19.60;48.90;;;;;;5050365;28;20721;-74
2022/06/14 03:20:05;;;;;;;3.97;1.85;;;19.60;49.00;;;;;;5052268;28;20211;-74
2022/06/14 03:23:01;;;;;;;6.45;2.15;;;19.60;49.00;;;;;;5050802;28;20186;-74
2022/06/14 03:25:51;;;;;;;3.95;1.90;;;19.60;48.90;;;;;;5052172;28;20174;-74
2022/06/14 03:28:25;;;;;;;3.58;2.10;;;19.60;48.90;;;;;;5052393;28;20233;-73
2022/06/14 03:30:55;;;;;;;3.70;1.90;;;19.60;48.90;;;;;;5049863;28;20171;-73
2022/06/14 03:33:30;;;;;;;3.15;1.70;;;19.60;48.80;;;;;;5052202;28;20175;-73
2022/06/14 03:35:56;;;;;;;3.25;2.05;;;19.60;48.80;;;;;;5050501;28;20720;-73
2022/06/14 03:38:29;;;;;;;4.70;2.08;;;19.50;48.70;;;;;;5050093;28;20270;-73
2022/06/14 03:40:55;;;;;;;2.90;1.83;;;19.50;48.70;;;;;;5051765;28;20324;-73
2022/06/14 03:43:21;;;;;;;4.78;2.20;;;19.50;48.80;;;;;;5052058;28;20167;-73
2022/06/14 03:45:56;;;;;;;4.25;1.70;;;19.50;48.60;;;;;;5049818;28;20228;-74
2022/06/14 03:48:21;;;;;;;4.40;1.67;;;19.50;48.70;;;;;;5049511;28;20199;-74
2022/06/14 03:50:53;;;;;;;3.10;2.28;;;19.50;49.00;;;;;;5049591;28;20195;-75
2022/06/14 03:53:31;;;;;;;3.40;2.03;;;19.50;48.80;;;;;;5050739;28;20185;-73
2022/06/14 03:56:13;;;;;;;2.55;1.77;;;19.50;48.70;;;;;;5051684;28;20244;-74
2022/06/14 03:59:00;;;;;;;3.75;1.85;;;19.40;48.70;;;;;;5049783;28;20266;-73
2022/06/14 04:01:32;;;;;;;2.65;1.65;;;19.50;48.70;;;;;;5050470;28;20268;-73
2022/06/14 04:04:07;;;;;;;4.18;2.10;;;19.40;48.60;;;;;;5015196;28;1017919;-72
2022/06/14 04:07:03;;;;;;;5.00;1.98;;;19.40;48.70;;;;;;5051887;28;20189;-72
2022/06/14 04:09:54;;;;;;;3.53;1.90;;;19.40;48.70;;;;;;5052382;28;20213;-73
2022/06/14 04:12:29;;;;;;;2.83;1.50;;;19.40;48.80;;;;;;5050535;28;20179;-73
2022/06/14 04:15:09;;;;;;;4.47;2.15;;;19.40;48.80;;;;;;5052141;28;20190;-73
2022/06/14 04:17:38;;;;;;;3.08;1.63;;;19.40;48.70;;;;;;5051343;28;20178;-74
2022/06/14 04:20:27;;;;;;;3.72;1.90;;;19.40;48.60;;;;;;5050291;28;20253;-73
2022/06/14 04:22:56;;;;;;;5.32;2.38;;;19.40;48.80;;;;;;5051035;28;20171;-73
2022/06/14 04:25:43;;;;;;;4.25;1.80;;;19.40;48.80;;;;;;5052462;28;20179;-74
2022/06/14 04:28:31;;;;;;;3.28;1.58;;;19.40;48.90;;;;;;5050527;28;20176;-74
2022/06/14 04:31:13;;;;;;;3.92;1.73;;;19.40;48.90;;;;;;5051034;28;20175;-73
2022/06/14 04:33:49;;;;;;;4.65;2.17;;;19.40;48.90;;;;;;5050101;28;20642;-73
2022/06/14 04:36:21;;;;;;;3.90;1.83;;;19.40;48.90;;;;;;5051065;28;20179;-72
2022/06/14 04:39:12;;;;;;;3.08;1.92;;;19.40;48.90;;;;;;5050629;28;20680;-73
2022/06/14 04:41:44;;;;;;;4.25;1.80;;;19.40;49.00;;;;;;5050171;28;20194;-73
2022/06/14 04:44:15;;;;;;;3.08;1.85;;;19.40;49.00;;;;;;5051016;28;20199;-74
2022/06/14 04:46:51;;;;;;;4.30;2.20;;;19.40;49.00;;;;;;5050770;28;20643;-74
2022/06/14 04:49:32;;;;;;;3.53;1.60;;;19.40;49.10;;;;;;5050084;28;20685;-74
2022/06/14 04:52:07;;;;;;;3.67;1.60;;;19.40;49.20;;;;;;5050822;28;20209;-75
2022/06/14 04:54:48;;;;;;;4.90;1.73;;;19.40;49.20;;;;;;5050154;28;20691;-74
2022/06/14 04:58:12;;;;;;;4.45;2.00;;;19.40;49.30;;;;;;5051031;28;20274;-73
2022/06/14 05:00:41;;;;;;;4.32;2.05;;;19.40;49.30;;;;;;5011856;28;20216;-72
2022/06/14 05:03:26;;;;;;;2.35;1.60;;;19.40;49.40;;;;;;5026100;28;20231;-72
2022/06/14 05:06:00;;;;;;;3.90;1.67;;;19.40;49.50;;;;;;5053989;28;20186;-73
2022/06/14 05:08:43;;;;;;;2.90;1.42;;;19.40;49.60;;;;;;5053523;28;20529;-73
2022/06/14 05:11:25;;;;;;;4.05;1.80;;;19.40;49.60;;;;;;5055427;28;20257;-74
2022/06/14 05:14:00;;;;;;;2.40;1.33;;;19.40;49.70;;;;;;5053989;28;20179;-75
2022/06/14 05:16:48;;;;;;;3.97;1.83;;;19.40;49.80;;;;;;5053651;28;20262;-74
2022/06/14 05:19:27;;;;;;;3.33;1.80;;;19.40;49.90;;;;;;5054056;28;20254;-74
2022/06/14 05:22:03;;;;;;;4.63;1.67;;;19.40;49.90;;;;;;5053896;28;20229;-74
2022/06/14 05:24:28;;;;;;;3.50;1.83;;;19.40;50.10;;;;;;5053336;28;20253;-74
2022/06/14 05:27:45;;;;;;;3.72;1.80;;;19.40;50.10;;;;;;5055094;28;20221;-74
2022/06/14 05:30:39;;;;;;;5.65;2.03;;;19.40;50.20;;;;;;5042224;28;20179;-73
2022/06/14 05:33:12;;;;;;;5.13;2.10;;;19.40;50.30;;;;;;5054778;28;20167;-73
2022/06/14 05:35:56;;;;;;;3.28;1.80;;;19.40;50.40;;;;;;5053641;28;20186;-74
2022/06/14 05:38:29;;;;;;;3.55;1.75;;;19.50;50.50;;;;;;5053241;28;20175;-72
2022/06/14 05:41:03;;;;;;;2.53;1.45;;;19.40;50.50;;;;;;5053359;28;20376;-73
2022/06/14 05:43:38;;;;;;;3.03;1.60;;;19.40;50.50;;;;;;5052898;28;20544;-73
2022/06/14 05:46:08;;;;;;;3.63;1.60;;;19.50;50.60;;;;;;5054874;28;20246;-74
2022/06/14 05:48:39;;;;;;;4.47;2.08;;;19.50;50.70;;;;;;5054844;28;20262;-73
2022/06/14 05:51:06;;;;;;;3.17;1.73;;;19.50;50.70;;;;;;5052801;28;20301;-74
2022/06/14 05:53:40;;;;;;;3.85;1.75;;;19.50;50.80;;;;;;5053680;28;20190;-75
2022/06/14 05:56:22;;;;;;;4.68;1.50;;;19.50;50.90;;;;;;5053666;28;20175;-73
2022/06/14 05:59:01;;;;;;;3.20;1.67;;;19.50;50.90;;;;;;5052396;28;20575;-72
2022/06/14 06:01:36;;;;;;;3.17;1.80;;;19.50;51.00;;;;;;5053460;28;20272;-72
2022/06/14 06:04:07;;;;;;;3.88;1.60;;;19.50;51.00;;;;;;5054163;28;20234;-72
2022/06/14 06:06:45;;;;;;;4.35;1.77;;;19.50;51.10;;;;;;5052696;28;20204;-72
2022/06/14 06:09:21;;;;;;;3.30;1.80;;;19.50;51.10;;;;;;5053297;28;20182;-73
2022/06/14 06:11:51;;;;;;;3.83;1.60;;;19.50;51.10;;;;;;5051097;28;20236;-73
2022/06/14 06:14:23;;;;;;;3.95;1.65;;;19.50;51.10;;;;;;5052950;28;20186;-74
2022/06/14 06:17:03;;;;;;;3.63;1.58;;;19.50;51.10;;;;;;5054058;28;20179;-74
2022/06/14 06:19:51;;;;;;;4.75;1.98;;;19.50;51.10;;;;;;5052401;28;20225;-73
2022/06/14 06:22:32;;;;;;;5.25;1.90;;;19.50;51.10;;;;;;5053032;28;20240;-73
2022/06/14 06:25:00;;;;;;;6.53;2.00;;;19.50;51.10;;;;;;5053713;28;20638;-73
2022/06/14 06:27:39;;;;;;;5.13;1.95;;;19.60;51.20;;;;;;5052305;28;20171;-73
2022/06/14 06:30:07;;;;;;;2.13;1.30;;;19.50;51.20;;;;;;5052903;28;20285;-73
2022/06/14 06:32:33;;;;;;;3.78;1.67;;;19.50;51.10;;;;;;5052127;28;20250;-73
2022/06/14 06:34:59;;;;;;;6.35;1.80;;;19.50;51.20;;;;;;5052387;28;20680;-72
2022/06/14 06:37:30;;;;;;;2.15;1.20;;;19.60;51.20;;;;;;5052767;28;20646;-73
2022/06/14 06:40:00;;;;;;;2.72;1.63;;;19.60;51.30;;;;;;5051677;28;20229;-73
2022/06/14 06:42:38;;;;;;;4.38;1.95;;;19.60;51.30;;;;;;5052726;28;20176;-74
2022/06/14 06:45:12;;;;;;;6.45;1.60;;;19.60;51.40;;;;;;5053561;28;20197;-73
2022/06/14 06:48:02;;;;;;;3.85;1.52;;;19.60;51.40;;;;;;5051442;28;20549;-75
2022/06/14 06:50:31;;;;;;;4.03;1.52;;;19.60;51.40;;;;;;5053346;28;20206;-74
2022/06/14 06:53:19;;;;;;;3.90;1.77;;;19.60;51.50;;;;;;5051882;28;20215;-75
2022/06/14 06:55:48;;;;;;;3.88;2.05;;;19.60;51.60;;;;;;5051127;28;20190;-73
2022/06/14 06:58:24;;;;;;;3.65;1.35;;;19.60;51.70;;;;;;5051948;28;20171;-73
2022/06/14 07:00:52;;;;;;;6.70;1.73;;;19.60;51.80;;;;;;5051249;28;20681;-72
2022/06/14 07:03:41;;;;;;;5.10;1.88;;;19.70;51.90;;;;;;5051947;28;20227;-75
2022/06/14 07:06:07;;;;;;;4.07;1.48;;;19.70;52.00;;;;;;5053046;28;20175;-73
2022/06/14 07:08:52;;;;;;;5.50;1.50;;;19.70;52.00;;;;;;5050819;28;20183;-73
2022/06/14 07:11:19;;;;;;;2.45;1.33;;;19.70;52.00;;;;;;5053248;28;20183;-74
2022/06/14 07:14:03;;;;;;;4.30;1.63;;;19.70;52.00;;;;;;5051751;28;20193;-74
2022/06/14 07:16:39;;;;;;;5.93;2.00;;;19.70;52.00;;;;;;5052308;28;20174;-74
2022/06/14 07:19:30;;;;;;;5.05;1.80;;;19.70;52.00;;;;;;5051575;28;20201;-74
2022/06/14 07:22:20;;;;;;;4.57;1.65;;;19.70;51.90;;;;;;5050930;28;20194;-74
2022/06/14 07:24:58;;;;;;;6.43;2.38;;;19.70;51.90;;;;;;5051471;28;20234;-74
2022/06/14 07:27:26;;;;;;;2.95;1.40;;;19.70;51.90;;;;;;5051662;28;20202;-74
2022/06/14 07:29:57;;;;;;;3.55;1.48;;;19.70;51.90;;;;;;5050494;28;20630;-73
2022/06/14 07:32:29;;;;;;;7.72;2.22;;;19.70;51.80;;;;;;5051573;28;20221;-73
2022/06/14 07:34:54;;;;;;;5.72;1.58;;;19.70;51.80;;;;;;5051296;28;20305;-73
2022/06/14 07:37:47;;;;;;;6.85;1.80;;;19.70;51.70;;;;;;5052070;28;20636;-73
2022/06/14 07:40:14;;;;;;;3.15;1.38;;;19.80;51.70;;;;;;5051466;28;20730;-73
2022/06/14 07:42:50;;;;;;;3.35;1.48;;;19.80;51.60;;;;;;5051439;28;20167;-72
2022/06/14 07:45:28;;;;;;;4.28;1.27;;;19.80;51.80;;;;;;5052087;28;20261;-72
2022/06/14 07:47:57;;;;;;;3.38;1.63;;;19.80;51.80;;;;;;5051279;28;20225;-74
2022/06/14 07:50:42;;;;;;;3.95;1.67;;;19.80;51.80;;;;;;5050604;28;20175;-72
2022/06/14 07:53:23;;;;;;;3.33;1.33;;;19.80;51.90;;;;;;5051363;28;20589;-73
2022/06/14 07:55:56;;;;;;;4.22;1.58;;;19.70;51.90;;;;;;5051109;28;20182;-74
2022/06/14 07:58:30;;;;;;;3.50;1.40;;;19.70;52.00;;;;;;5051717;28;20210;-72
2022/06/14 08:01:07;;;;;;;2.90;1.50;;;19.80;52.70;;;;;;5051232;28;20218;-71
2022/06/14 08:04:06;;;;;;;2.58;1.30;;;19.80;51.90;;;;;;5051476;28;20232;-71
2022/06/14 08:06:41;;;;;;;3.20;1.38;;;19.80;51.80;;;;;;5051379;28;20306;-71
2022/06/14 08:09:29;;;;;;;3.25;1.17;;;19.80;51.80;;;;;;5051257;28;20188;-72
2022/06/14 08:11:59;;;;;;;2.83;1.40;;;19.80;51.90;;;;;;5050725;28;20183;-73
2022/06/14 08:14:38;;;;;;;3.28;1.33;;;19.80;52.00;;;;;;5052519;28;20185;-74
2022/06/14 08:17:05;;;;;;;3.13;1.35;;;19.80;52.10;;;;;;5051061;28;20213;-73
2022/06/14 08:19:34;;;;;;;3.15;1.30;;;19.80;52.00;;;;;;5050281;28;20246;-73
2022/06/14 08:22:03;;;;;;;3.65;1.45;;;19.80;52.00;;;;;;5051135;28;20218;-73
2022/06/14 08:24:32;;;;;;;2.45;1.70;;;19.70;52.10;;;;;;5051212;28;20175;-73
2022/06/14 08:27:18;;;;;;;5.40;1.80;;;19.80;52.10;;;;;;5049945;28;20516;-73
2022/06/14 08:29:57;;;;;;;1.65;1.27;;;19.80;52.10;;;;;;5052189;28;20175;-73
2022/06/14 08:32:28;;;;;;;4.95;1.67;;;19.80;52.10;;;;;;5050373;28;20262;-72
2022/06/14 08:35:00;;;;;;;3.75;1.25;;;19.80;52.10;;;;;;5051526;28;20695;-73
2022/06/14 08:37:46;;;;;;;2.38;1.02;;;19.80;52.10;;;;;;5054913;28;20176;-72
2022/06/14 08:40:29;;;;;;;2.65;1.40;;;19.80;52.10;;;;;;5053987;28;20670;-72
2022/06/14 08:42:58;;;;;;;3.58;1.20;;;19.80;52.10;;;;;;5055591;28;20642;-73
2022/06/14 08:45:35;;;;;;;2.10;1.23;;;19.80;52.10;;;;;;5054766;28;20187;-73
2022/06/14 08:48:08;;;;;;;2.95;1.20;;;19.80;52.10;;;;;;5055080;28;20179;-73
2022/06/14 08:50:56;;;;;;;3.25;1.60;;;19.90;52.00;;;;;;5055669;28;20695;-74
2022/06/14 08:53:46;;;;;;;4.30;1.45;;;20.00;51.90;;;;;;5053990;28;20175;-74
2022/06/14 08:56:21;;;;;;;2.58;1.50;;;20.00;51.90;;;;;;5054670;28;20656;-73
2022/06/14 08:59:05;;;;;;;3.75;1.52;;;20.00;51.70;;;;;;5054212;28;20209;-73
2022/06/14 09:02:08;;;;;;;2.55;1.35;;;20.10;51.60;;;;;;5053841;28;20282;-72
2022/06/14 09:04:52;;;;;;;2.00;1.42;;;20.20;51.60;;;;;;5055311;28;20241;-72
2022/06/14 09:07:31;;;;;;;2.60;1.30;;;20.20;51.50;;;;;;5054627;28;20183;-73
2022/06/14 09:10:09;;;;;;;2.28;1.30;;;20.20;51.60;;;;;;5054045;28;20175;-72
2022/06/14 09:12:49;;;;;;;2.13;1.33;;;20.10;51.70;;;;;;5054404;28;20179;-72
2022/06/14 09:15:54;;;;;;;3.08;1.35;;;20.10;51.80;;;;;;5055076;28;20258;-73
2022/06/14 09:18:37;;;;;;;2.08;1.00;;;20.10;51.90;;;;;;5054314;28;20182;-73
2022/06/14 09:21:13;;;;;;;2.38;1.05;;;20.20;51.90;;;;;;5053947;28;20245;-73
2022/06/14 09:23:45;;;;;;;2.10;1.40;;;20.20;51.80;;;;;;5053525;28;20257;-72
2022/06/14 09:26:22;;;;;;;2.15;1.60;;;20.30;51.80;;;;;;5054048;28;20254;-72
2022/06/14 09:28:48;;;;;;;2.58;1.20;;;20.30;51.80;;;;;;5052808;28;20547;-74
2022/06/14 09:31:22;;;;;;;2.42;1.20;;;20.30;51.80;;;;;;5055181;28;20171;-71
2022/06/14 09:34:21;;;;;;;3.22;1.13;;;20.40;51.80;;;;;;5053541;28;20592;-70
2022/06/14 09:36:56;;;;;;;2.13;0.93;;;20.40;51.70;;;;;;5052756;28;20187;-71
2022/06/14 09:39:36;;;;;;;4.32;1.23;;;20.30;51.80;;;;;;5054942;28;20174;-72
2022/06/14 09:42:21;;;;;;;1.45;1.00;;;20.40;51.90;;;;;;5053604;28;20179;-71
2022/06/14 09:45:13;;;;;;;2.85;1.05;;;20.40;51.80;;;;;;5053243;28;20183;-75
2022/06/14 09:48:02;;;;;;;3.15;1.17;;;20.50;51.80;;;;;;5053478;28;20194;-73
2022/06/14 09:50:42;;;;;;;3.53;1.48;;;20.50;51.80;;;;;;5054029;28;20208;-73
2022/06/14 09:53:21;;;;;;;2.60;1.23;;;20.60;51.90;;;;;;5053403;28;20252;-73
2022/06/14 09:56:16;;;;;;;2.75;1.55;;;20.60;51.90;;;;;;5053188;28;20183;-73
2022/06/14 09:58:58;;;;;;;4.90;1.13;;;20.70;52.00;;;;;;5053567;28;20185;-69
2022/06/14 10:01:38;;;;;;;4.43;1.35;;;20.60;52.10;;;;;;5053305;28;20317;-64
2022/06/14 10:04:16;;;;;;;2.72;1.30;;;20.70;52.50;;;;;;5052379;28;20219;-71
2022/06/14 10:06:46;;;;;;;5.18;1.30;;;20.60;52.30;;;;;;5054187;28;20189;-70
2022/06/14 10:09:32;;;;;;;4.30;1.30;;;20.60;52.40;;;;;;5054446;28;20171;-72
2022/06/14 10:12:14;;;;;;;3.63;1.35;;;20.70;52.30;;;;;;5052264;28;20537;-72
2022/06/14 10:14:44;;;;;;;1.63;1.02;;;20.70;52.30;;;;;;5052976;28;20211;-72
2022/06/14 10:17:19;;;;;;;3.53;1.23;;;20.60;52.40;;;;;;5054197;28;20180;-72
2022/06/14 10:19:49;;;;;;;6.63;1.67;;;20.50;52.50;;;;;;5051842;28;20241;-72
2022/06/14 10:22:26;;;;;;;5.50;1.45;;;20.60;52.60;;;;;;5052925;28;20179;-72
2022/06/14 10:24:55;;;;;;;4.32;1.40;;;20.50;52.60;;;;;;5051918;28;20236;-72
2022/06/14 10:30:49;;;;;;;5.28;1.20;;;20.50;52.70;;;;;;5053044;28;20289;-71
2022/06/14 10:33:53;;;;;;;2.92;1.25;;;20.40;52.70;;;;;;5052224;28;20248;-70
2022/06/14 10:36:33;;;;;;;2.75;1.23;;;20.40;52.80;;;;;;5053832;28;20240;-69
2022/06/14 10:39:14;;;;;;;4.30;1.75;;;20.40;52.80;;;;;;5052731;28;20175;-69
2022/06/14 10:42:16;;;;;;;4.30;1.23;;;20.50;52.60;;;;;;5053625;28;20197;-70
2022/06/14 10:44:45;;;;;;;4.65;1.40;;;20.70;52.50;;;;;;5052121;28;20221;-71
2022/06/14 10:47:42;;;;;;;3.97;1.60;;;20.60;52.60;;;;;;5052832;28;20260;-71
2022/06/14 10:50:38;;;;;;;3.70;1.30;;;20.60;52.70;;;;;;5052512;28;20229;-71
2022/06/14 10:53:42;;;;;;;5.38;1.40;;;20.70;52.60;;;;;;5052724;28;20175;-72
2022/06/14 10:56:46;;;;;;;2.15;1.33;;;20.80;52.50;;;;;;5063235;28;20178;-70
2022/06/14 10:59:14;;;;;;;2.63;1.35;;;20.80;52.40;;;;;;5060437;28;20181;-69
2022/06/14 11:01:43;;;;;;;3.25;1.20;;;20.80;52.40;;;;;;5072241;28;20178;-69
2022/06/14 11:04:39;;;;;;;1.92;1.00;;;20.80;52.30;;;;;;5057824;28;20219;-69
2022/06/14 11:07:40;;;;;;;2.50;1.10;;;20.90;52.40;;;;;;5043297;28;20273;-69
2022/06/14 11:10:05;;;;;;;2.10;0.85;;;20.90;52.30;;;;;;5037951;28;20175;-71
2022/06/14 11:12:49;;;;;;;2.05;0.95;;;21.00;52.30;;;;;;5066672;28;20508;-72
2022/06/14 11:15:19;;;;;;;2.65;1.58;;;21.00;52.20;;;;;;5072479;28;20179;-72
2022/06/14 11:18:11;;;;;;;2.17;1.00;;;21.10;52.10;;;;;;5055347;28;20174;-72
2022/06/14 11:21:09;;;;;;;3.22;1.15;;;21.00;52.10;;;;;;5055495;28;20294;-73
2022/06/14 11:24:12;;;;;;;2.83;1.30;;;21.00;52.30;;;;;;5072191;28;20174;-72
2022/06/14 11:26:56;;;;;;;2.78;1.38;;;21.00;52.40;;;;;;5056582;28;20187;-74
2022/06/14 11:29:33;;;;;;;1.35;1.00;;;21.00;52.30;;;;;;5052320;28;20584;-72
2022/06/14 11:32:10;;;;;;;4.68;1.73;;;21.00;52.20;;;;;;5051390;28;20317;-72
2022/06/14 11:34:48;;;;;;;2.47;1.00;;;21.10;52.10;;;;;;5051454;28;20187;-71
2022/06/14 11:37:57;;;;;;;1.83;1.08;;;21.00;52.30;;;;;;5051989;28;20175;-71
2022/06/14 11:40:27;;;;;;;3.78;1.08;;;20.90;52.50;;;;;;5051269;28;20214;-72
2022/06/14 11:43:01;;;;;;;2.97;0.88;;;20.80;52.60;;;;;;5051878;28;20187;-72
2022/06/14 11:45:41;;;;;;;2.03;1.00;;;20.80;52.70;;;;;;5052720;28;20171;-72
2022/06/14 11:48:33;;;;;;;1.38;1.15;;;20.80;52.80;;;;;;5052918;28;20183;-73
2022/06/14 11:51:13;;;;;;;2.25;1.40;;;20.80;52.70;;;;;;5050609;28;20245;-73
2022/06/14 11:53:48;;;;;;;3.72;1.25;;;20.80;52.60;;;;;;5051206;28;20185;-73
2022/06/14 11:56:28;;;;;;;2.85;1.25;;;20.90;52.70;;;;;;5051901;28;20167;-72
2022/06/14 11:59:17;;;;;;;2.30;1.10;;;20.90;52.70;;;;;;5052176;28;20622;-72
2022/06/14 12:02:01;;;;;;;2.35;1.05;;;20.90;52.60;;;;;;5051093;28;20199;-71
2022/06/14 12:04:41;;;;;;;2.88;1.13;;;21.00;52.60;;;;;;5051541;28;20568;-71
2022/06/14 12:07:13;;;;;;;2.03;1.13;;;21.00;52.50;;;;;;5051482;28;20171;-72
2022/06/14 12:09:47;;;;;;;2.53;1.40;;;21.00;52.50;;;;;;5051674;28;20510;-72
2022/06/14 12:12:22;;;;;;;3.45;1.50;;;21.00;52.40;;;;;;5054729;28;20206;-73
2022/06/14 12:14:53;;;;;;;1.45;1.00;;;21.10;52.30;;;;;;5056299;28;20179;-74
2022/06/14 12:17:30;;;;;;;1.48;1.02;;;21.10;52.30;;;;;;5054787;28;20175;-74
2022/06/14 12:20:15;;;;;;;1.75;1.20;;;21.20;52.20;;;;;;5055211;28;20291;-74
2022/06/14 12:23:00;;;;;;;1.02;0.95;;;21.20;52.10;;;;;;5056013;28;20629;-73
2022/06/14 12:28:19;;;;;;;2.03;0.90;;;21.30;52.00;;;;;;5055694;28;20198;-72
2022/06/14 12:30:45;;;;;;;2.75;1.00;;;21.30;51.90;;;;;;5055986;28;20187;-72
2022/06/14 12:33:28;;;;;;;1.25;0.98;;;21.30;51.90;;;;;;5054324;28;20258;-71
2022/06/14 12:36:14;;;;;;;1.48;1.17;;;21.30;51.80;;;;;;5055670;28;20709;-70
2022/06/14 12:38:40;;;;;;;3.95;1.00;;;21.30;51.80;;;;;;5054063;28;20179;-71
2022/06/14 12:41:32;;;;;;;1.95;0.95;;;21.40;51.80;;;;;;5056262;28;20214;-71
2022/06/14 12:44:29;;;;;;;2.22;1.20;;;21.40;51.60;;;;;;5054248;28;20186;-72
2022/06/14 12:46:55;;;;;;;2.45;1.00;;;21.40;51.60;;;;;;5055028;28;20186;-72
2022/06/14 12:49:38;;;;;;;1.52;0.95;;;21.30;51.60;;;;;;5054817;28;20269;-72
2022/06/14 12:52:17;;;;;;;2.70;1.67;;;21.40;51.60;;;;;;5054332;28;20225;-72
2022/06/14 12:54:51;;;;;;;1.60;1.17;;;21.40;51.40;;;;;;5054204;28;20190;-74
2022/06/14 12:57:36;;;;;;;1.23;1.00;;;21.50;51.30;;;;;;5055900;28;20170;-71
2022/06/14 13:00:08;;;;;;;1.92;1.35;;;21.50;51.30;;;;;;5053748;28;20565;-71
2022/06/14 13:02:40;;;;;;;2.55;1.15;;;21.50;51.30;;;;;;5054211;28;20227;-71
2022/06/14 13:05:09;;;;;;;1.85;1.00;;;21.50;51.20;;;;;;5054563;28;20210;-70
2022/06/14 13:07:41;;;;;;;2.53;1.23;;;21.60;51.10;;;;;;5054631;28;20635;-71
2022/06/14 13:10:22;;;;;;;2.55;1.20;;;21.60;51.00;;;;;;5054541;28;20189;-73
2022/06/14 13:13:10;;;;;;;2.42;1.10;;;21.70;51.00;;;;;;5055112;28;20703;-74
2022/06/14 13:15:39;;;;;;;2.90;1.15;;;21.70;50.90;;;;;;5053178;28;20285;-73
2022/06/14 13:18:13;;;;;;;1.15;1.02;;;21.70;50.90;;;;;;5053992;28;20202;-73
2022/06/14 13:20:50;;;;;;;1.52;1.00;;;21.70;50.80;;;;;;5052708;28;20223;-74
2022/06/14 13:23:36;;;;;;;1.95;1.15;;;21.80;50.80;;;;;;5054094;28;20183;-73
2022/06/14 13:26:08;;;;;;;1.95;1.20;;;21.80;50.80;;;;;;5054177;28;20175;-72
2022/06/14 13:28:59;;;;;;;1.58;1.17;;;21.80;50.80;;;;;;5053581;28;20248;-72
2022/06/14 13:31:34;;;;;;;2.65;1.10;;;21.80;50.80;;;;;;5054001;28;20558;-72
2022/06/14 13:34:36;;;;;;;1.55;1.40;;;21.80;50.70;;;;;;5053769;28;20250;-69
2022/06/14 13:37:24;;;;;;;1.60;1.17;;;21.90;50.70;;;;;;5053906;28;20187;-71
2022/06/14 13:39:54;;;;;;;1.13;0.93;;;21.90;50.70;;;;;;5053427;28;20202;-71
2022/06/14 13:42:33;;;;;;;1.58;1.25;;;21.90;50.60;;;;;;5053016;28;20266;-71
2022/06/14 13:45:16;;;;;;;2.60;1.25;;;21.90;50.50;;;;;;5053671;28;20179;-71
2022/06/14 13:47:45;;;;;;;1.38;1.27;;;22.00;50.50;;;;;;5053292;28;20216;-72
2022/06/14 13:50:29;;;;;;;1.30;0.75;;;22.00;50.40;;;;;;5053896;28;20634;-72
2022/06/14 13:53:19;;;;;;;2.10;1.10;;;22.00;50.30;;;;;;5053240;28;20754;-72
2022/06/14 13:56:10;;;;;;;1.30;1.10;;;21.90;50.40;;;;;;5052733;28;20195;-71